sensor_id;sensor_type;location;lat;lon;timestamp;P1;durP1;ratioP1;P2;durP2;ratioP2
15820;SDS011;8011;51.650;7.240;2022-09-20T03:02:02;4.73;;;2.40;;
15820;SDS011;8011;51.650;7.240;2022-09-20T03:07:56;6.13;;;2.43;;
15820;SDS011;8011;51.650;7.240;2022-09-20T03:22:47;6.17;;;2.10;;
15820;SDS011;8011;51.650;7.240;2022-09-20T03:25:34;2.67;;;2.00;;
15820;SDS011;8011;51.650;7.240;2022-09-20T03:31:16;3.43;;;2.70;;
15820;SDS011;8011;51.650;7.240;2022-09-20T03:34:04;7.00;;;2.83;;
15820;SDS011;8011;51.650;7.240;2022-09-20T03:41:58;4.27;;;2.40;;
15820;SDS011;8011;51.650;7.240;2022-09-20T03:47:30;4.07;;;2.33;;
15820;SDS011;8011;51.650;7.240;2022-09-20T03:50:44;2.87;;;2.40;;
15820;SDS011;8011;51.650;7.240;2022-09-20T04:05:01;5.10;;;2.50;;
15820;SDS011;8011;51.650;7.240;2022-09-20T04:15:31;6.37;;;3.20;;
15820;SDS011;8011;51.650;7.240;2022-09-20T04:18:33;4.97;;;2.70;;
15820;SDS011;8011;51.650;7.240;2022-09-20T04:26:22;3.97;;;2.77;;
15820;SDS011;8011;51.650;7.240;2022-09-20T04:31:26;3.70;;;2.70;;
15820;SDS011;8011;51.650;7.240;2022-09-20T04:34:07;4.07;;;3.10;;
15820;SDS011;8011;51.650;7.240;2022-09-20T04:39:30;7.83;;;4.00;;
15820;SDS011;8011;51.650;7.240;2022-09-20T04:42:35;4.77;;;3.70;;
15820;SDS011;8011;51.650;7.240;2022-09-20T04:57:02;8.20;;;3.87;;
15820;SDS011;8011;51.650;7.240;2022-09-20T05:00:04;6.57;;;3.90;;
15820;SDS011;8011;51.650;7.240;2022-09-20T05:05:12;9.43;;;4.57;;
15820;SDS011;8011;51.650;7.240;2022-09-20T05:10:46;9.53;;;4.57;;
15820;SDS011;8011;51.650;7.240;2022-09-20T05:13:32;7.40;;;3.67;;
15820;SDS011;8011;51.650;7.240;2022-09-20T05:40:56;8.07;;;4.37;;
15820;SDS011;8011;51.650;7.240;2022-09-20T05:49:09;6.87;;;4.40;;
15820;SDS011;8011;51.650;7.240;2022-09-20T05:52:04;9.60;;;4.57;;
15820;SDS011;8011;51.650;7.240;2022-09-20T06:00:52;9.80;;;5.33;;
15820;SDS011;8011;51.650;7.240;2022-09-20T06:19:44;11.13;;;5.87;;
15820;SDS011;8011;51.650;7.240;2022-09-20T06:22:20;9.47;;;5.43;;
15820;SDS011;8011;51.650;7.240;2022-09-20T06:25:00;9.27;;;5.60;;
15820;SDS011;8011;51.650;7.240;2022-09-20T06:30:15;9.83;;;5.87;;
15820;SDS011;8011;51.650;7.240;2022-09-20T06:33:05;9.87;;;5.80;;
15820;SDS011;8011;51.650;7.240;2022-09-20T06:41:14;9.93;;;5.27;;
15820;SDS011;8011;51.650;7.240;2022-09-20T06:44:06;6.97;;;5.00;;
15820;SDS011;8011;51.650;7.240;2022-09-20T06:46:33;9.17;;;5.30;;
15820;SDS011;8011;51.650;7.240;2022-09-20T06:49:00;9.40;;;5.70;;
15820;SDS011;8011;51.650;7.240;2022-09-20T06:51:27;10.33;;;5.47;;
15820;SDS011;8011;51.650;7.240;2022-09-20T06:53:58;10.33;;;5.57;;
15820;SDS011;8011;51.650;7.240;2022-09-20T06:56:25;14.37;;;5.80;;
15820;SDS011;8011;51.650;7.240;2022-09-20T06:58:53;11.63;;;5.80;;
15820;SDS011;8011;51.650;7.240;2022-09-20T07:01:19;8.13;;;4.97;;
15820;SDS011;8011;51.650;7.240;2022-09-20T07:03:45;12.37;;;6.00;;
15820;SDS011;8011;51.650;7.240;2022-09-20T07:06:11;6.80;;;5.20;;
15820;SDS011;8011;51.650;7.240;2022-09-20T07:08:44;10.87;;;6.00;;
15820;SDS011;8011;51.650;7.240;2022-09-20T07:11:14;9.33;;;5.40;;
15820;SDS011;8011;51.650;7.240;2022-09-20T07:13:41;8.57;;;5.80;;
15820;SDS011;8011;51.650;7.240;2022-09-20T07:16:12;9.33;;;5.50;;
15820;SDS011;8011;51.650;7.240;2022-09-20T07:18:38;13.47;;;5.37;;
15820;SDS011;8011;51.650;7.240;2022-09-20T07:21:05;10.57;;;5.57;;
15820;SDS011;8011;51.650;7.240;2022-09-20T07:23:31;10.57;;;6.23;;
15820;SDS011;8011;51.650;7.240;2022-09-20T07:25:57;14.20;;;5.90;;
15820;SDS011;8011;51.650;7.240;2022-09-20T07:28:26;8.87;;;6.17;;
15820;SDS011;8011;51.650;7.240;2022-09-20T07:30:52;9.93;;;5.57;;
15820;SDS011;8011;51.650;7.240;2022-09-20T07:33:18;7.83;;;5.57;;
15820;SDS011;8011;51.650;7.240;2022-09-20T07:35:46;9.43;;;5.63;;
15820;SDS011;8011;51.650;7.240;2022-09-20T07:38:13;12.23;;;6.80;;
15820;SDS011;8011;51.650;7.240;2022-09-20T07:40:39;15.63;;;6.37;;
15820;SDS011;8011;51.650;7.240;2022-09-20T07:43:05;10.87;;;5.90;;
15820;SDS011;8011;51.650;7.240;2022-09-20T07:45:31;9.50;;;6.33;;
15820;SDS011;8011;51.650;7.240;2022-09-20T07:47:59;11.60;;;5.80;;
15820;SDS011;8011;51.650;7.240;2022-09-20T07:50:29;10.23;;;5.80;;
15820;SDS011;8011;51.650;7.240;2022-09-20T07:52:56;9.20;;;6.60;;
15820;SDS011;8011;51.650;7.240;2022-09-20T07:55:22;10.77;;;5.87;;
15820;SDS011;8011;51.650;7.240;2022-09-20T07:57:47;9.73;;;5.47;;
15820;SDS011;8011;51.650;7.240;2022-09-20T08:00:13;9.40;;;6.73;;
15820;SDS011;8011;51.650;7.240;2022-09-20T08:02:40;11.60;;;6.33;;
15820;SDS011;8011;51.650;7.240;2022-09-20T08:05:05;11.00;;;5.93;;
15820;SDS011;8011;51.650;7.240;2022-09-20T08:07:31;11.40;;;6.40;;
15820;SDS011;8011;51.650;7.240;2022-09-20T08:09:57;12.30;;;6.20;;
15820;SDS011;8011;51.650;7.240;2022-09-20T08:12:23;8.00;;;5.60;;
15820;SDS011;8011;51.650;7.240;2022-09-20T08:14:50;13.17;;;5.70;;
15820;SDS011;8011;51.650;7.240;2022-09-20T08:17:16;11.37;;;6.23;;
15820;SDS011;8011;51.650;7.240;2022-09-20T08:19:43;8.83;;;5.50;;
15820;SDS011;8011;51.650;7.240;2022-09-20T08:22:09;9.47;;;6.03;;
15820;SDS011;8011;51.650;7.240;2022-09-20T08:24:36;8.77;;;5.30;;
15820;SDS011;8011;51.650;7.240;2022-09-20T08:27:03;13.03;;;5.53;;
15820;SDS011;8011;51.650;7.240;2022-09-20T08:29:29;9.40;;;5.67;;
15820;SDS011;8011;51.650;7.240;2022-09-20T08:31:54;9.27;;;5.13;;
15820;SDS011;8011;51.650;7.240;2022-09-20T08:34:22;7.87;;;5.27;;
15820;SDS011;8011;51.650;7.240;2022-09-20T08:36:48;9.13;;;5.37;;
15820;SDS011;8011;51.650;7.240;2022-09-20T08:39:16;9.30;;;5.10;;
15820;SDS011;8011;51.650;7.240;2022-09-20T08:41:56;10.70;;;5.50;;
15820;SDS011;8011;51.650;7.240;2022-09-20T08:44:32;8.87;;;5.07;;
15820;SDS011;8011;51.650;7.240;2022-09-20T08:47:16;10.43;;;5.40;;
15820;SDS011;8011;51.650;7.240;2022-09-20T08:49:46;11.30;;;5.13;;
15820;SDS011;8011;51.650;7.240;2022-09-20T08:52:15;11.67;;;4.47;;
15820;SDS011;8011;51.650;7.240;2022-09-20T08:55:12;11.13;;;4.37;;
15820;SDS011;8011;51.650;7.240;2022-09-20T08:57:46;9.70;;;4.27;;
15820;SDS011;8011;51.650;7.240;2022-09-20T09:00:15;9.07;;;3.90;;
15820;SDS011;8011;51.650;7.240;2022-09-20T09:02:43;6.27;;;3.57;;
15820;SDS011;8011;51.650;7.240;2022-09-20T09:05:19;7.70;;;4.10;;
15820;SDS011;8011;51.650;7.240;2022-09-20T09:07:59;6.13;;;3.03;;
15820;SDS011;8011;51.650;7.240;2022-09-20T09:10:31;7.83;;;3.43;;
15820;SDS011;8011;51.650;7.240;2022-09-20T09:13:00;6.90;;;1.97;;
15820;SDS011;8011;51.650;7.240;2022-09-20T09:15:27;6.53;;;2.20;;
15820;SDS011;8011;51.650;7.240;2022-09-20T09:17:57;4.23;;;1.83;;
15820;SDS011;8011;51.650;7.240;2022-09-20T09:20:23;3.53;;;1.47;;
15820;SDS011;8011;51.650;7.240;2022-09-20T09:23:05;6.33;;;1.63;;
15820;SDS011;8011;51.650;7.240;2022-09-20T09:25:36;5.53;;;1.60;;
15820;SDS011;8011;51.650;7.240;2022-09-20T09:30:35;4.37;;;2.27;;
15820;SDS011;8011;51.650;7.240;2022-09-20T09:35:59;6.23;;;2.37;;
15820;SDS011;8011;51.650;7.240;2022-09-20T09:38:33;3.97;;;2.07;;
15820;SDS011;8011;51.650;7.240;2022-09-20T09:41:02;5.70;;;2.10;;
15820;SDS011;8011;51.650;7.240;2022-09-20T09:43:34;6.00;;;1.80;;
15820;SDS011;8011;51.650;7.240;2022-09-20T09:49:32;4.83;;;1.33;;
15820;SDS011;8011;51.650;7.240;2022-09-20T09:51:40;3.03;;;1.10;;
15820;SDS011;8011;51.650;7.240;2022-09-20T09:54:15;2.67;;;1.20;;
15820;SDS011;8011;51.650;7.240;2022-09-20T10:30:22;1.43;;;0.83;;
15820;SDS011;8011;51.650;7.240;2022-09-20T10:38:34;2.70;;;0.80;;
15820;SDS011;8011;51.650;7.240;2022-09-20T10:44:06;1.37;;;0.77;;
15820;SDS011;8011;51.650;7.240;2022-09-20T10:52:08;4.20;;;1.20;;
15820;SDS011;8011;51.650;7.240;2022-09-20T11:03:41;3.03;;;1.03;;
15820;SDS011;8011;51.650;7.240;2022-09-20T11:06:14;1.13;;;0.87;;
15820;SDS011;8011;51.650;7.240;2022-09-20T11:09:02;3.07;;;1.40;;
15820;SDS011;8011;51.650;7.240;2022-09-20T11:11:35;4.60;;;0.90;;
15820;SDS011;8011;51.650;7.240;2022-09-20T11:14:11;3.57;;;0.93;;
15820;SDS011;8011;51.650;7.240;2022-09-20T11:24:33;3.57;;;1.10;;
15820;SDS011;8011;51.650;7.240;2022-09-20T11:27:14;4.23;;;0.90;;
15820;SDS011;8011;51.650;7.240;2022-09-20T11:29:50;3.27;;;1.00;;
15820;SDS011;8011;51.650;7.240;2022-09-20T11:32:20;4.50;;;0.80;;
15820;SDS011;8011;51.650;7.240;2022-09-20T11:34:50;4.17;;;0.80;;
15820;SDS011;8011;51.650;7.240;2022-09-20T11:37:29;2.37;;;0.60;;
15820;SDS011;8011;51.650;7.240;2022-09-20T11:40:06;2.33;;;0.77;;
15820;SDS011;8011;51.650;7.240;2022-09-20T11:42:43;2.53;;;0.70;;
15820;SDS011;8011;51.650;7.240;2022-09-20T11:45:10;2.53;;;0.60;;
15820;SDS011;8011;51.650;7.240;2022-09-20T11:47:41;3.10;;;0.73;;
15820;SDS011;8011;51.650;7.240;2022-09-20T11:56:23;3.43;;;0.90;;
15820;SDS011;8011;51.650;7.240;2022-09-20T11:58:52;1.60;;;0.60;;
15820;SDS011;8011;51.650;7.240;2022-09-20T12:01:37;1.23;;;0.67;;
15820;SDS011;8011;51.650;7.240;2022-09-20T12:06:42;2.83;;;0.60;;
15820;SDS011;8011;51.650;7.240;2022-09-20T12:09:31;4.33;;;0.87;;
15820;SDS011;8011;51.650;7.240;2022-09-20T12:15:07;3.40;;;0.60;;
15820;SDS011;8011;51.650;7.240;2022-09-20T12:23:41;1.60;;;0.63;;
15820;SDS011;8011;51.650;7.240;2022-09-20T12:28:44;2.73;;;0.67;;
15820;SDS011;8011;51.650;7.240;2022-09-20T12:33:56;2.37;;;0.60;;
15820;SDS011;8011;51.650;7.240;2022-09-20T12:37:21;3.30;;;0.67;;
15820;SDS011;8011;51.650;7.240;2022-09-20T12:39:21;1.23;;;0.50;;
15820;SDS011;8011;51.650;7.240;2022-09-20T12:46:56;2.37;;;0.63;;
15820;SDS011;8011;51.650;7.240;2022-09-20T13:08:33;5.60;;;1.07;;
15820;SDS011;8011;51.650;7.240;2022-09-20T13:11:13;1.07;;;0.70;;
15820;SDS011;8011;51.650;7.240;2022-09-20T13:13:46;3.73;;;0.90;;
15820;SDS011;8011;51.650;7.240;2022-09-20T13:16:19;1.00;;;0.50;;
15820;SDS011;8011;51.650;7.240;2022-09-20T13:18:46;1.17;;;0.60;;
15820;SDS011;8011;51.650;7.240;2022-09-20T13:21:18;2.40;;;0.83;;
15820;SDS011;8011;51.650;7.240;2022-09-20T13:23:45;3.97;;;0.73;;
15820;SDS011;8011;51.650;7.240;2022-09-20T13:26:14;1.37;;;0.67;;
15820;SDS011;8011;51.650;7.240;2022-09-20T13:28:43;3.57;;;0.77;;
15820;SDS011;8011;51.650;7.240;2022-09-20T13:33:46;2.43;;;0.90;;
15820;SDS011;8011;51.650;7.240;2022-09-20T13:36:12;2.00;;;0.70;;
15820;SDS011;8011;51.650;7.240;2022-09-20T13:38:38;2.50;;;0.70;;
15820;SDS011;8011;51.650;7.240;2022-09-20T13:41:08;1.97;;;0.70;;
15820;SDS011;8011;51.650;7.240;2022-09-20T13:43:41;1.87;;;0.60;;
15820;SDS011;8011;51.650;7.240;2022-09-20T13:46:10;2.07;;;0.80;;
15820;SDS011;8011;51.650;7.240;2022-09-20T13:48:37;1.83;;;0.70;;
15820;SDS011;8011;51.650;7.240;2022-09-20T13:51:13;2.43;;;0.90;;
15820;SDS011;8011;51.650;7.240;2022-09-20T13:53:44;2.67;;;1.20;;
15820;SDS011;8011;51.650;7.240;2022-09-20T13:56:21;2.20;;;0.70;;
15820;SDS011;8011;51.650;7.240;2022-09-20T13:58:51;2.37;;;0.70;;
15820;SDS011;8011;51.650;7.240;2022-09-20T14:01:22;2.10;;;0.80;;
15820;SDS011;8011;51.650;7.240;2022-09-20T14:03:48;2.20;;;0.93;;
15820;SDS011;8011;51.650;7.240;2022-09-20T14:06:14;5.60;;;0.70;;
15820;SDS011;8011;51.650;7.240;2022-09-20T14:08:44;3.90;;;0.87;;
15820;SDS011;8011;51.650;7.240;2022-09-20T14:11:25;4.20;;;0.87;;
15820;SDS011;8011;51.650;7.240;2022-09-20T14:13:59;3.73;;;0.83;;
15820;SDS011;8011;51.650;7.240;2022-09-20T14:16:27;3.20;;;0.77;;
15820;SDS011;8011;51.650;7.240;2022-09-20T14:18:57;2.47;;;0.80;;
15820;SDS011;8011;51.650;7.240;2022-09-20T14:21:27;3.60;;;0.80;;
15820;SDS011;8011;51.650;7.240;2022-09-20T14:24:00;2.20;;;0.73;;
15820;SDS011;8011;51.650;7.240;2022-09-20T14:26:38;3.00;;;0.97;;
15820;SDS011;8011;51.650;7.240;2022-09-20T14:34:42;2.40;;;0.60;;
15820;SDS011;8011;51.650;7.240;2022-09-20T14:37:26;2.70;;;0.70;;
15820;SDS011;8011;51.650;7.240;2022-09-20T14:39:56;3.80;;;0.90;;
15820;SDS011;8011;51.650;7.240;2022-09-20T14:45:29;5.47;;;1.00;;
15820;SDS011;8011;51.650;7.240;2022-09-20T14:47:58;1.83;;;0.53;;
15820;SDS011;8011;51.650;7.240;2022-09-20T14:50:32;2.23;;;0.90;;
15820;SDS011;8011;51.650;7.240;2022-09-20T14:53:04;2.43;;;0.70;;
15820;SDS011;8011;51.650;7.240;2022-09-20T14:55:31;1.37;;;0.60;;
15820;SDS011;8011;51.650;7.240;2022-09-20T14:58:03;3.80;;;0.83;;
15820;SDS011;8011;51.650;7.240;2022-09-20T15:00:53;2.93;;;0.80;;
15820;SDS011;8011;51.650;7.240;2022-09-20T15:03:26;2.60;;;0.60;;
15820;SDS011;8011;51.650;7.240;2022-09-20T15:06:05;2.77;;;0.90;;
15820;SDS011;8011;51.650;7.240;2022-09-20T15:08:34;2.53;;;0.70;;
15820;SDS011;8011;51.650;7.240;2022-09-20T15:11:00;3.33;;;0.73;;
15820;SDS011;8011;51.650;7.240;2022-09-20T15:13:26;1.50;;;0.47;;
15820;SDS011;8011;51.650;7.240;2022-09-20T15:15:52;2.63;;;0.70;;
15820;SDS011;8011;51.650;7.240;2022-09-20T15:18:22;1.77;;;0.63;;
15820;SDS011;8011;51.650;7.240;2022-09-20T15:20:50;3.67;;;0.90;;
15820;SDS011;8011;51.650;7.240;2022-09-20T15:23:17;2.47;;;0.60;;
15820;SDS011;8011;51.650;7.240;2022-09-20T15:25:44;1.83;;;0.67;;
15820;SDS011;8011;51.650;7.240;2022-09-20T15:28:13;2.13;;;0.57;;
15820;SDS011;8011;51.650;7.240;2022-09-20T15:30:44;5.23;;;0.90;;
15820;SDS011;8011;51.650;7.240;2022-09-20T15:33:11;3.63;;;0.77;;
15820;SDS011;8011;51.650;7.240;2022-09-20T15:35:38;2.87;;;0.73;;
15820;SDS011;8011;51.650;7.240;2022-09-20T15:38:04;4.57;;;0.90;;
15820;SDS011;8011;51.650;7.240;2022-09-20T15:40:33;2.67;;;0.77;;
15820;SDS011;8011;51.650;7.240;2022-09-20T15:42:59;1.03;;;0.60;;
15820;SDS011;8011;51.650;7.240;2022-09-20T15:45:25;2.17;;;1.20;;
15820;SDS011;8011;51.650;7.240;2022-09-20T15:47:52;2.57;;;0.90;;
15820;SDS011;8011;51.650;7.240;2022-09-20T15:50:22;1.60;;;1.00;;
15820;SDS011;8011;51.650;7.240;2022-09-20T15:52:48;4.37;;;1.17;;
15820;SDS011;8011;51.650;7.240;2022-09-20T15:55:16;1.77;;;0.60;;
15820;SDS011;8011;51.650;7.240;2022-09-20T15:57:42;1.80;;;0.83;;
15820;SDS011;8011;51.650;7.240;2022-09-20T16:00:09;2.37;;;1.03;;
15820;SDS011;8011;51.650;7.240;2022-09-20T16:02:35;2.53;;;0.97;;
15820;SDS011;8011;51.650;7.240;2022-09-20T16:05:01;2.97;;;0.77;;
15820;SDS011;8011;51.650;7.240;2022-09-20T16:07:27;1.40;;;0.60;;
15820;SDS011;8011;51.650;7.240;2022-09-20T16:09:53;2.23;;;0.73;;
15820;SDS011;8011;51.650;7.240;2022-09-20T16:12:20;1.13;;;0.70;;
15820;SDS011;8011;51.650;7.240;2022-09-20T16:14:47;1.60;;;0.70;;
15820;SDS011;8011;51.650;7.240;2022-09-20T16:17:13;2.00;;;0.70;;
15820;SDS011;8011;51.650;7.240;2022-09-20T16:19:40;1.90;;;0.80;;
15820;SDS011;8011;51.650;7.240;2022-09-20T16:22:06;2.53;;;1.03;;
15820;SDS011;8011;51.650;7.240;2022-09-20T16:24:33;1.43;;;0.90;;
15820;SDS011;8011;51.650;7.240;2022-09-20T16:26:59;1.47;;;0.50;;
15820;SDS011;8011;51.650;7.240;2022-09-20T16:29:27;2.40;;;0.60;;
15820;SDS011;8011;51.650;7.240;2022-09-20T16:31:54;1.37;;;0.77;;
15820;SDS011;8011;51.650;7.240;2022-09-20T16:34:22;1.63;;;0.77;;
15820;SDS011;8011;51.650;7.240;2022-09-20T16:36:54;1.50;;;0.90;;
15820;SDS011;8011;51.650;7.240;2022-09-20T16:39:23;3.20;;;0.90;;
15820;SDS011;8011;51.650;7.240;2022-09-20T16:41:52;2.57;;;1.10;;
15820;SDS011;8011;51.650;7.240;2022-09-20T16:44:18;1.30;;;1.00;;
15820;SDS011;8011;51.650;7.240;2022-09-20T16:46:44;2.00;;;1.00;;
15820;SDS011;8011;51.650;7.240;2022-09-20T16:49:11;2.63;;;1.40;;
15820;SDS011;8011;51.650;7.240;2022-09-20T16:51:41;6.93;;;1.60;;
15820;SDS011;8011;51.650;7.240;2022-09-20T16:54:08;2.43;;;1.30;;
15820;SDS011;8011;51.650;7.240;2022-09-20T16:56:36;2.33;;;1.17;;
15820;SDS011;8011;51.650;7.240;2022-09-20T16:59:04;1.40;;;0.97;;
15820;SDS011;8011;51.650;7.240;2022-09-20T17:01:31;1.97;;;0.80;;
15820;SDS011;8011;51.650;7.240;2022-09-20T17:03:58;2.07;;;0.63;;
15820;SDS011;8011;51.650;7.240;2022-09-20T17:06:29;2.20;;;0.90;;
15820;SDS011;8011;51.650;7.240;2022-09-20T17:08:55;1.90;;;0.80;;
15820;SDS011;8011;51.650;7.240;2022-09-20T17:11:22;1.60;;;0.70;;
15820;SDS011;8011;51.650;7.240;2022-09-20T17:13:50;0.97;;;0.70;;
15820;SDS011;8011;51.650;7.240;2022-09-20T17:16:19;1.87;;;1.00;;
15820;SDS011;8011;51.650;7.240;2022-09-20T17:18:50;1.27;;;0.60;;
15820;SDS011;8011;51.650;7.240;2022-09-20T17:21:18;1.87;;;0.70;;
15820;SDS011;8011;51.650;7.240;2022-09-20T17:23:45;3.30;;;0.90;;
15820;SDS011;8011;51.650;7.240;2022-09-20T17:26:13;2.30;;;0.80;;
15820;SDS011;8011;51.650;7.240;2022-09-20T17:28:41;1.47;;;0.70;;
15820;SDS011;8011;51.650;7.240;2022-09-20T17:31:09;3.33;;;0.70;;
15820;SDS011;8011;51.650;7.240;2022-09-20T17:33:39;0.93;;;0.67;;
15820;SDS011;8011;51.650;7.240;2022-09-20T17:36:06;2.93;;;0.87;;
15820;SDS011;8011;51.650;7.240;2022-09-20T17:38:36;1.60;;;0.90;;
15820;SDS011;8011;51.650;7.240;2022-09-20T17:41:06;1.77;;;0.67;;
15820;SDS011;8011;51.650;7.240;2022-09-20T17:43:38;2.13;;;0.80;;
15820;SDS011;8011;51.650;7.240;2022-09-20T17:46:11;1.80;;;0.90;;
15820;SDS011;8011;51.650;7.240;2022-09-20T17:48:39;3.30;;;1.30;;
15820;SDS011;8011;51.650;7.240;2022-09-20T17:51:06;1.67;;;1.00;;
15820;SDS011;8011;51.650;7.240;2022-09-20T17:53:34;2.93;;;1.50;;
15820;SDS011;8011;51.650;7.240;2022-09-20T17:56:01;2.40;;;1.20;;
15820;SDS011;8011;51.650;7.240;2022-09-20T17:58:28;1.27;;;1.17;;
15820;SDS011;8011;51.650;7.240;2022-09-20T18:00:54;1.70;;;1.37;;
15820;SDS011;8011;51.650;7.240;2022-09-20T18:03:26;4.13;;;1.40;;
15820;SDS011;8011;51.650;7.240;2022-09-20T18:05:51;3.17;;;1.40;;
15820;SDS011;8011;51.650;7.240;2022-09-20T18:08:18;2.43;;;1.33;;
15820;SDS011;8011;51.650;7.240;2022-09-20T18:10:53;2.90;;;1.20;;
15820;SDS011;8011;51.650;7.240;2022-09-20T18:13:20;2.57;;;1.57;;
15820;SDS011;8011;51.650;7.240;2022-09-20T18:15:46;4.10;;;1.37;;
15820;SDS011;8011;51.650;7.240;2022-09-20T18:18:12;1.23;;;1.13;;
15820;SDS011;8011;51.650;7.240;2022-09-20T18:20:37;2.90;;;1.30;;
15820;SDS011;8011;51.650;7.240;2022-09-20T18:23:03;1.70;;;1.10;;
15820;SDS011;8011;51.650;7.240;2022-09-20T18:25:29;3.17;;;0.97;;
15820;SDS011;8011;51.650;7.240;2022-09-20T18:28:18;3.40;;;1.20;;
15820;SDS011;8011;51.650;7.240;2022-09-20T18:30:43;1.70;;;1.00;;
15820;SDS011;8011;51.650;7.240;2022-09-20T18:33:10;2.03;;;1.17;;
15820;SDS011;8011;51.650;7.240;2022-09-20T18:35:37;2.27;;;1.00;;
15820;SDS011;8011;51.650;7.240;2022-09-20T18:38:06;2.33;;;1.60;;
15820;SDS011;8011;51.650;7.240;2022-09-20T18:40:32;2.47;;;1.07;;
15820;SDS011;8011;51.650;7.240;2022-09-20T18:43:01;4.77;;;1.00;;
15820;SDS011;8011;51.650;7.240;2022-09-20T18:45:26;4.07;;;1.00;;
15820;SDS011;8011;51.650;7.240;2022-09-20T18:47:52;1.80;;;0.80;;
15820;SDS011;8011;51.650;7.240;2022-09-20T18:50:21;1.47;;;0.90;;
15820;SDS011;8011;51.650;7.240;2022-09-20T18:52:50;3.53;;;1.17;;
15820;SDS011;8011;51.650;7.240;2022-09-20T18:55:18;5.43;;;1.13;;
15820;SDS011;8011;51.650;7.240;2022-09-20T18:57:46;2.73;;;1.00;;
15820;SDS011;8011;51.650;7.240;2022-09-20T19:00:12;1.40;;;1.00;;
15820;SDS011;8011;51.650;7.240;2022-09-20T19:11:00;1.97;;;1.30;;
15820;SDS011;8011;51.650;7.240;2022-09-20T19:21:36;2.37;;;0.90;;
15820;SDS011;8011;51.650;7.240;2022-09-20T19:26:36;2.40;;;0.93;;
15820;SDS011;8011;51.650;7.240;2022-09-20T19:29:03;1.53;;;0.93;;
15820;SDS011;8011;51.650;7.240;2022-09-20T19:31:42;3.53;;;0.83;;
15820;SDS011;8011;51.650;7.240;2022-09-20T19:34:11;1.57;;;0.80;;
15820;SDS011;8011;51.650;7.240;2022-09-20T19:45:17;2.23;;;0.90;;
15820;SDS011;8011;51.650;7.240;2022-09-20T19:50:41;2.50;;;0.93;;
15820;SDS011;8011;51.650;7.240;2022-09-20T19:53:10;2.30;;;0.83;;
15820;SDS011;8011;51.650;7.240;2022-09-20T19:55:38;1.13;;;0.90;;
15820;SDS011;8011;51.650;7.240;2022-09-20T19:58:10;3.67;;;1.10;;
15820;SDS011;8011;51.650;7.240;2022-09-20T20:00:36;4.07;;;1.37;;
15820;SDS011;8011;51.650;7.240;2022-09-20T20:03:02;4.97;;;1.30;;
15820;SDS011;8011;51.650;7.240;2022-09-20T20:05:28;1.97;;;1.30;;
15820;SDS011;8011;51.650;7.240;2022-09-20T20:10:28;4.67;;;1.40;;
15820;SDS011;8011;51.650;7.240;2022-09-20T20:13:02;4.97;;;1.67;;
15820;SDS011;8011;51.650;7.240;2022-09-20T20:16:02;3.33;;;1.00;;
15820;SDS011;8011;51.650;7.240;2022-09-20T20:21:20;2.93;;;1.30;;
15820;SDS011;8011;51.650;7.240;2022-09-20T20:26:44;2.10;;;1.20;;
15820;SDS011;8011;51.650;7.240;2022-09-20T20:29:10;2.87;;;1.43;;
15820;SDS011;8011;51.650;7.240;2022-09-20T20:31:36;4.10;;;1.30;;
15820;SDS011;8011;51.650;7.240;2022-09-20T20:34:02;3.03;;;1.60;;
15820;SDS011;8011;51.650;7.240;2022-09-20T20:36:28;2.07;;;1.30;;
15820;SDS011;8011;51.650;7.240;2022-09-20T20:38:53;4.10;;;1.43;;
15820;SDS011;8011;51.650;7.240;2022-09-20T20:41:19;2.97;;;2.27;;
15820;SDS011;8011;51.650;7.240;2022-09-20T20:43:46;2.87;;;1.80;;
15820;SDS011;8011;51.650;7.240;2022-09-20T20:46:20;5.67;;;2.20;;
15820;SDS011;8011;51.650;7.240;2022-09-20T20:48:46;4.03;;;1.73;;
15820;SDS011;8011;51.650;7.240;2022-09-20T20:51:16;2.57;;;1.40;;
15820;SDS011;8011;51.650;7.240;2022-09-20T20:53:44;3.53;;;1.37;;
15820;SDS011;8011;51.650;7.240;2022-09-20T20:56:17;1.90;;;1.40;;
15820;SDS011;8011;51.650;7.240;2022-09-20T20:58:47;2.53;;;1.37;;
15820;SDS011;8011;51.650;7.240;2022-09-20T21:01:14;2.80;;;1.73;;
15820;SDS011;8011;51.650;7.240;2022-09-20T21:03:45;3.27;;;1.63;;
15820;SDS011;8011;51.650;7.240;2022-09-20T21:06:12;4.33;;;1.60;;
15820;SDS011;8011;51.650;7.240;2022-09-20T21:08:40;2.67;;;1.50;;
15820;SDS011;8011;51.650;7.240;2022-09-20T21:13:43;2.23;;;1.30;;
15820;SDS011;8011;51.650;7.240;2022-09-20T21:16:13;1.83;;;1.40;;
15820;SDS011;8011;51.650;7.240;2022-09-20T21:18:42;3.10;;;1.70;;
15820;SDS011;8011;51.650;7.240;2022-09-20T21:21:13;3.93;;;1.60;;
15820;SDS011;8011;51.650;7.240;2022-09-20T21:23:50;2.50;;;1.40;;
15820;SDS011;8011;51.650;7.240;2022-09-20T21:26:17;5.20;;;1.73;;
15820;SDS011;8011;51.650;7.240;2022-09-20T21:28:48;2.77;;;1.57;;
15820;SDS011;8011;51.650;7.240;2022-09-20T21:31:16;2.77;;;1.70;;
15820;SDS011;8011;51.650;7.240;2022-09-20T21:33:46;3.90;;;1.50;;
15820;SDS011;8011;51.650;7.240;2022-09-20T21:36:13;2.97;;;1.70;;
15820;SDS011;8011;51.650;7.240;2022-09-20T21:38:49;1.80;;;1.60;;
15820;SDS011;8011;51.650;7.240;2022-09-20T21:41:22;5.10;;;2.00;;
15820;SDS011;8011;51.650;7.240;2022-09-20T21:43:59;2.37;;;2.13;;
15820;SDS011;8011;51.650;7.240;2022-09-20T21:46:29;1.83;;;1.50;;
15820;SDS011;8011;51.650;7.240;2022-09-20T21:48:57;3.07;;;2.03;;
15820;SDS011;8011;51.650;7.240;2022-09-20T21:51:25;2.40;;;1.57;;
15820;SDS011;8011;51.650;7.240;2022-09-20T21:53:53;2.10;;;1.20;;
15820;SDS011;8011;51.650;7.240;2022-09-20T21:56:24;2.03;;;1.30;;
15820;SDS011;8011;51.650;7.240;2022-09-20T21:58:51;2.93;;;1.60;;
15820;SDS011;8011;51.650;7.240;2022-09-20T22:01:18;1.90;;;1.23;;
15820;SDS011;8011;51.650;7.240;2022-09-20T22:03:49;3.43;;;1.60;;
15820;SDS011;8011;51.650;7.240;2022-09-20T22:06:23;2.63;;;1.13;;
15820;SDS011;8011;51.650;7.240;2022-09-20T22:11:22;4.10;;;1.27;;
15820;SDS011;8011;51.650;7.240;2022-09-20T22:13:50;3.07;;;1.70;;
15820;SDS011;8011;51.650;7.240;2022-09-20T22:16:18;5.70;;;1.63;;
15820;SDS011;8011;51.650;7.240;2022-09-20T22:18:48;2.07;;;1.50;;
15820;SDS011;8011;51.650;7.240;2022-09-20T22:21:15;2.87;;;1.53;;
15820;SDS011;8011;51.650;7.240;2022-09-20T22:23:42;2.43;;;1.60;;
15820;SDS011;8011;51.650;7.240;2022-09-20T22:26:09;2.23;;;1.40;;
15820;SDS011;8011;51.650;7.240;2022-09-20T22:28:39;2.47;;;1.40;;
15820;SDS011;8011;51.650;7.240;2022-09-20T22:31:06;3.50;;;1.33;;
15820;SDS011;8011;51.650;7.240;2022-09-20T22:33:53;1.40;;;1.13;;
15820;SDS011;8011;51.650;7.240;2022-09-20T22:36:22;2.57;;;1.47;;
15820;SDS011;8011;51.650;7.240;2022-09-20T22:38:52;3.77;;;1.30;;
15820;SDS011;8011;51.650;7.240;2022-09-20T22:41:18;1.73;;;1.27;;
15820;SDS011;8011;51.650;7.240;2022-09-20T22:43:45;2.00;;;1.30;;
15820;SDS011;8011;51.650;7.240;2022-09-20T22:46:12;2.07;;;1.40;;
15820;SDS011;8011;51.650;7.240;2022-09-20T22:48:39;3.60;;;1.17;;
15820;SDS011;8011;51.650;7.240;2022-09-20T22:51:09;3.47;;;1.30;;
15820;SDS011;8011;51.650;7.240;2022-09-20T22:53:35;3.10;;;1.37;;
15820;SDS011;8011;51.650;7.240;2022-09-20T22:58:34;2.63;;;1.23;;
